createdAt,value
2022-11-19T00:01:35.172Z,274.67
2022-11-19T00:04:02.877Z,273.65
2022-11-19T00:06:30.597Z,277.00
2022-11-19T00:08:58.355Z,272.75
2022-11-19T00:11:41.184Z,278.05
2022-11-19T00:14:12.354Z,278.77
2022-11-19T00:16:40.089Z,278.92
2022-11-19T00:19:08.164Z,286.13
2022-11-19T00:21:35.911Z,277.98
2022-11-19T00:24:03.540Z,251.88
2022-11-19T00:26:31.186Z,286.90
2022-11-19T00:28:58.967Z,278.80
2022-11-19T00:31:28.061Z,287.33
2022-11-19T00:33:55.929Z,279.17
2022-11-19T00:36:24.281Z,283.77
2022-11-19T00:38:52.056Z,280.73
2022-11-19T00:41:20.410Z,282.83
2022-11-19T00:43:48.486Z,280.10
2022-11-19T00:46:17.643Z,277.05
2022-11-19T00:48:47.206Z,282.45
2022-11-19T00:51:15.300Z,281.48
2022-11-19T00:53:43.052Z,282.10
2022-11-19T00:56:12.522Z,284.75
2022-11-19T00:58:40.590Z,277.52
2022-11-19T01:01:09.365Z,283.17
2022-11-19T01:03:38.396Z,277.40
2022-11-19T01:06:08.264Z,283.02
2022-11-19T01:08:35.983Z,277.17
2022-11-19T01:11:07.787Z,281.65
2022-11-19T01:13:36.050Z,273.98
2022-11-19T01:16:05.518Z,279.70
2022-11-19T01:18:33.695Z,287.33
2022-11-19T01:21:01.539Z,285.65
2022-11-19T01:23:30.661Z,285.48
2022-11-19T01:25:58.405Z,281.65
2022-11-19T01:28:26.200Z,283.80
2022-11-19T01:30:53.999Z,277.75
2022-11-19T01:33:22.639Z,283.25
2022-11-19T01:36:01.328Z,283.80
2022-11-19T01:38:30.857Z,279.42
2022-11-19T01:40:59.307Z,281.63
2022-11-19T01:43:45.400Z,279.85
2022-11-19T01:46:14.668Z,281.90
2022-11-19T01:48:45.544Z,287.83
2022-11-19T01:51:15.247Z,289.90
2022-11-19T01:53:45.557Z,283.70
2022-11-19T01:56:13.552Z,286.05
2022-11-19T01:58:42.603Z,284.60
2022-11-19T02:01:11.083Z,292.20
2022-11-19T02:03:39.631Z,284.35
2022-11-19T02:06:08.428Z,288.92
2022-11-19T02:08:39.281Z,274.58
2022-11-19T02:11:22.001Z,285.67
2022-11-19T02:13:57.356Z,274.40
2022-11-19T02:16:28.600Z,280.75
2022-11-19T02:19:00.106Z,280.05
2022-11-19T02:21:33.169Z,279.38
2022-11-19T02:24:29.333Z,280.05
2022-11-19T02:27:37.385Z,276.10
2022-11-19T02:30:12.020Z,285.52
2022-11-19T02:32:48.092Z,273.27
2022-11-19T02:35:21.378Z,269.85
2022-11-19T02:37:53.100Z,273.63
2022-11-19T02:40:24.951Z,277.40
2022-11-19T02:42:58.017Z,317.10
2022-11-19T02:45:30.644Z,274.13
2022-11-19T02:48:02.044Z,277.70
2022-11-19T02:50:32.991Z,283.73
2022-11-19T02:53:00.648Z,276.55
2022-11-19T02:55:28.832Z,270.70
2022-11-19T02:57:59.664Z,278.35
2022-11-19T03:00:47.117Z,288.25
2022-11-19T03:03:33.921Z,285.60
2022-11-19T03:06:04.511Z,278.08
2022-11-19T03:08:32.352Z,285.33
2022-11-19T03:11:08.855Z,282.13
2022-11-19T03:14:03.677Z,287.05
2022-11-19T03:16:44.029Z,274.30
2022-11-19T03:19:19.789Z,274.17
2022-11-19T03:21:52.524Z,267.92
2022-11-19T03:24:24.610Z,270.27
2022-11-19T03:26:55.300Z,275.73
2022-11-19T03:29:23.891Z,269.50
2022-11-19T03:31:55.633Z,274.23
2022-11-19T03:34:24.412Z,277.63
2022-11-19T03:36:54.783Z,271.20
2022-11-19T03:39:23.220Z,269.50
2022-11-19T03:41:52.305Z,274.67
2022-11-19T03:44:23.240Z,274.83
2022-11-19T03:46:56.001Z,273.90
2022-11-19T03:49:28.445Z,275.38
2022-11-19T03:51:59.375Z,274.38
2022-11-19T03:54:27.105Z,281.20
2022-11-19T03:56:55.821Z,274.88
2022-11-19T03:59:29.326Z,270.48
2022-11-19T04:02:01.291Z,269.15
2022-11-19T04:04:38.001Z,275.70
2022-11-19T04:07:10.868Z,271.52
2022-11-19T04:09:39.156Z,264.00
2022-11-19T04:12:08.199Z,287.17
2022-11-19T04:14:35.969Z,269.83
2022-11-19T04:17:05.038Z,282.98
2022-11-19T04:19:32.770Z,273.27
2022-11-19T04:22:00.487Z,269.98
2022-11-19T04:24:28.238Z,270.88
2022-11-19T04:26:55.972Z,272.40
2022-11-19T04:29:23.701Z,274.45
2022-11-19T04:31:51.414Z,269.85
2022-11-19T04:34:20.500Z,268.25
2022-11-19T04:36:48.383Z,269.88
2022-11-19T04:39:16.159Z,270.65
2022-11-19T04:41:43.877Z,275.35
2022-11-19T04:44:11.621Z,267.75
2022-11-19T04:46:39.299Z,266.98
2022-11-19T04:49:07.076Z,275.40
2022-11-19T04:51:36.179Z,266.83
2022-11-19T04:54:03.903Z,273.30
2022-11-19T04:56:31.607Z,263.27
2022-11-19T04:58:59.287Z,267.20
2022-11-19T05:01:27.043Z,267.10
2022-11-19T05:03:54.776Z,257.85
2022-11-19T05:06:22.487Z,261.98
2022-11-19T05:08:51.560Z,268.85
2022-11-19T05:11:19.333Z,268.15
2022-11-19T05:13:47.020Z,269.40
2022-11-19T05:16:14.722Z,269.25
2022-11-19T05:18:42.453Z,266.27
2022-11-19T05:21:10.322Z,265.98
2022-11-19T05:23:38.054Z,269.40
2022-11-19T05:26:07.220Z,265.60
2022-11-19T05:28:38.941Z,266.48
2022-11-19T05:31:07.268Z,275.42
2022-11-19T05:33:35.017Z,266.15
2022-11-19T05:36:02.866Z,270.15
2022-11-19T05:38:30.571Z,263.70
2022-11-19T05:40:58.291Z,267.95
2022-11-19T05:43:27.379Z,270.23
2022-11-19T05:45:55.018Z,264.17
2022-11-19T05:48:22.740Z,256.38
2022-11-19T05:50:50.428Z,266.17
2022-11-19T05:53:18.063Z,262.65
2022-11-19T05:55:45.771Z,265.02
2022-11-19T05:58:13.802Z,265.05
2022-11-19T06:00:42.966Z,263.17
2022-11-19T06:03:11.005Z,269.60
2022-11-19T06:05:40.479Z,264.77
2022-11-19T06:08:08.369Z,266.67
2022-11-19T06:10:36.024Z,273.40
2022-11-19T06:13:03.676Z,270.10
2022-11-19T06:15:31.407Z,263.70
2022-11-19T06:18:00.408Z,258.83
2022-11-19T06:20:28.115Z,269.27
2022-11-19T06:22:55.837Z,256.25
2022-11-19T06:25:23.915Z,259.85
2022-11-19T06:27:51.621Z,256.92
2022-11-19T06:30:19.529Z,264.58
2022-11-19T06:32:47.232Z,251.65
2022-11-19T06:35:16.476Z,257.27
2022-11-19T06:37:44.131Z,249.65
2022-11-19T06:40:13.127Z,254.70
2022-11-19T06:42:40.852Z,254.00
2022-11-19T06:45:11.450Z,258.38
2022-11-19T06:47:40.351Z,256.40
2022-11-19T06:50:09.971Z,250.70
2022-11-19T06:52:39.360Z,254.25
2022-11-19T06:55:07.868Z,261.40
2022-11-19T06:57:35.941Z,251.40
2022-11-19T07:00:04.108Z,258.98
2022-11-19T07:02:31.931Z,250.40
2022-11-19T07:04:59.625Z,251.07
2022-11-19T07:07:27.532Z,248.73
2022-11-19T07:09:56.655Z,248.80
2022-11-19T07:12:24.302Z,252.98
2022-11-19T07:14:52.177Z,255.52
2022-11-19T07:17:20.011Z,258.63
2022-11-19T07:19:47.693Z,268.85
2022-11-19T07:22:15.453Z,277.08
2022-11-19T07:24:43.204Z,261.83
2022-11-19T07:27:12.524Z,271.27
2022-11-19T07:29:40.236Z,162.57
2022-11-19T07:32:08.089Z,151.13
2022-11-19T07:34:36.204Z,165.25
2022-11-19T07:37:03.934Z,168.65
2022-11-19T07:39:31.672Z,163.02
2022-11-19T07:42:16.793Z,164.07
2022-11-19T07:44:47.904Z,160.15
2022-11-19T07:47:17.427Z,167.25
2022-11-19T07:49:45.117Z,168.18
2022-11-19T07:52:12.896Z,168.57
2022-11-19T07:54:40.606Z,168.00
2022-11-19T07:57:08.900Z,169.93
2022-11-19T07:59:36.591Z,159.95
2022-11-19T08:02:05.738Z,160.55
2022-11-19T08:04:33.547Z,172.02
2022-11-19T08:07:02.471Z,169.23
2022-11-19T08:09:30.216Z,179.02
2022-11-19T08:11:57.921Z,180.27
2022-11-19T08:14:25.643Z,180.55
2022-11-19T08:17:10.799Z,179.95
2022-11-19T08:19:39.898Z,159.13
2022-11-19T08:22:07.815Z,180.10
2022-11-19T08:24:35.463Z,180.40
2022-11-19T08:27:03.133Z,180.00
2022-11-19T08:29:30.780Z,179.00
2022-11-19T08:31:58.520Z,178.75
2022-11-19T08:34:26.339Z,177.45
2022-11-19T08:36:55.365Z,183.10
2022-11-19T08:39:23.034Z,179.10
2022-11-19T08:42:08.311Z,181.20
2022-11-19T08:44:36.048Z,180.30
2022-11-19T08:47:03.679Z,184.75
2022-11-19T08:49:31.348Z,180.65
2022-11-19T08:52:00.384Z,181.60
2022-11-19T08:54:28.071Z,161.23
2022-11-19T08:56:55.772Z,184.55
2022-11-19T08:59:23.474Z,183.93
2022-11-19T09:01:51.247Z,178.95
2022-11-19T09:04:19.318Z,178.73
2022-11-19T09:06:47.167Z,187.65
2022-11-19T09:09:16.408Z,186.98
2022-11-19T09:11:44.064Z,189.02
2022-11-19T09:14:11.934Z,185.75
2022-11-19T09:16:39.641Z,176.50
2022-11-19T09:19:07.288Z,180.90
2022-11-19T09:21:34.936Z,178.60
2022-11-19T09:24:02.614Z,185.27
2022-11-19T09:26:31.692Z,183.02
2022-11-19T09:28:59.416Z,187.70
2022-11-19T09:31:27.168Z,185.57
2022-11-19T09:33:55.261Z,186.70
2022-11-19T09:36:22.993Z,181.18
2022-11-19T09:38:50.684Z,180.50
2022-11-19T09:41:43.416Z,184.10
2022-11-19T09:44:23.600Z,183.98
2022-11-19T09:46:57.247Z,186.48
2022-11-19T09:49:29.792Z,188.32
2022-11-19T09:51:59.667Z,187.30
2022-11-19T09:54:27.617Z,189.75
2022-11-19T09:57:01.774Z,189.70
2022-11-19T09:59:35.028Z,190.93
2022-11-19T10:02:02.931Z,186.75
2022-11-19T10:04:33.347Z,183.25
2022-11-19T10:07:11.341Z,191.48
2022-11-19T10:09:56.166Z,190.43
2022-11-19T10:12:33.341Z,193.75
2022-11-19T10:15:13.809Z,196.18
2022-11-19T10:17:51.263Z,190.23
2022-11-19T10:20:35.501Z,196.88
2022-11-19T10:23:07.315Z,195.63
2022-11-19T10:25:37.600Z,190.77
2022-11-19T10:28:12.468Z,192.57
2022-11-19T10:30:41.896Z,194.10
2022-11-19T10:33:15.921Z,197.00
2022-11-19T10:35:45.641Z,197.20
2022-11-19T10:38:18.883Z,193.68
2022-11-19T10:40:48.193Z,194.32
2022-11-19T10:43:23.588Z,202.38
2022-11-19T10:45:51.340Z,196.48
2022-11-19T10:48:21.929Z,201.55
2022-11-19T10:50:49.883Z,190.68
2022-11-19T10:53:21.070Z,199.27
2022-11-19T10:55:54.465Z,199.52
2022-11-19T10:58:26.300Z,190.98
2022-11-19T11:00:54.744Z,189.25
2022-11-19T11:03:25.095Z,195.55
2022-11-19T11:06:01.929Z,188.68
2022-11-19T11:08:29.728Z,201.35
2022-11-19T11:10:57.525Z,203.95
2022-11-19T11:13:53.944Z,200.73
2022-11-19T11:16:23.792Z,200.02
2022-11-19T11:18:54.243Z,197.15
2022-11-19T11:21:34.288Z,204.77
2022-11-19T11:24:04.537Z,201.35
2022-11-19T11:26:34.608Z,198.65
2022-11-19T11:29:05.812Z,196.00
2022-11-19T11:31:37.647Z,194.82
2022-11-19T11:34:06.890Z,196.70
2022-11-19T11:36:36.627Z,201.77
2022-11-19T11:39:06.136Z,205.55
2022-11-19T11:44:27.319Z,181.97
2022-11-19T11:46:56.047Z,201.40
2022-11-19T11:49:29.840Z,200.30
2022-11-19T11:52:04.135Z,200.23
2022-11-19T11:54:32.034Z,199.70
2022-11-19T11:57:18.508Z,206.33
2022-11-19T11:59:47.613Z,210.87
2022-11-19T12:02:26.853Z,200.73
2022-11-19T12:04:56.055Z,205.77
2022-11-19T12:07:36.765Z,194.93
2022-11-19T12:10:15.320Z,201.27
2022-11-19T12:12:49.331Z,188.47
2022-11-19T12:15:23.120Z,220.47
2022-11-19T12:17:55.765Z,209.07
2022-11-19T12:20:30.643Z,212.48
2022-11-19T12:23:15.700Z,204.13
2022-11-19T12:25:52.252Z,206.87
2022-11-19T12:28:38.884Z,207.17
2022-11-19T12:31:16.977Z,208.27
2022-11-19T12:33:57.473Z,190.90
2022-11-19T12:36:32.009Z,207.93
2022-11-19T12:39:03.971Z,204.53
2022-11-19T12:41:45.085Z,202.80
2022-11-19T12:44:18.082Z,205.63
2022-11-19T12:46:52.997Z,201.20
2022-11-19T12:49:38.780Z,210.60
2022-11-19T12:52:17.421Z,213.83
2022-11-19T12:54:52.798Z,196.67
2022-11-19T12:57:30.082Z,212.20
2022-11-19T13:00:16.339Z,200.63
2022-11-19T13:02:53.370Z,207.57
2022-11-19T13:05:26.464Z,211.07
2022-11-19T13:07:57.762Z,212.13
2022-11-19T13:10:27.824Z,216.87
2022-11-19T13:12:57.293Z,200.70
2022-11-19T13:15:31.593Z,207.03
2022-11-19T13:18:03.768Z,212.97
2022-11-19T13:20:38.863Z,220.37
2022-11-19T13:23:07.802Z,198.20
2022-11-19T13:25:38.322Z,212.73
2022-11-19T13:28:14.777Z,216.00
2022-11-19T13:30:44.328Z,218.53
2022-11-19T13:33:17.389Z,222.00
2022-11-19T13:35:50.063Z,218.23
2022-11-19T13:38:22.614Z,203.93
2022-11-19T13:40:54.472Z,200.87
2022-11-19T13:43:41.256Z,206.20
2022-11-19T13:46:19.871Z,188.33
2022-11-19T13:48:54.842Z,195.30
2022-11-19T13:51:28.278Z,188.37
2022-11-19T13:54:02.673Z,202.13
2022-11-19T13:56:41.166Z,192.60
2022-11-19T13:59:16.547Z,204.97
2022-11-19T14:02:01.029Z,187.60
2022-11-19T14:04:43.084Z,203.80
2022-11-19T14:07:46.531Z,198.77
2022-11-19T14:10:18.712Z,203.87
2022-11-19T14:12:56.672Z,198.80
2022-11-19T14:15:53.969Z,189.50
2022-11-19T14:18:43.932Z,190.97
2022-11-19T14:22:06.916Z,200.60
2022-11-19T14:25:11.324Z,186.97
2022-11-19T14:27:38.995Z,197.77
2022-11-19T14:30:08.669Z,202.20
2022-11-19T14:32:46.738Z,205.70
2022-11-19T14:35:42.173Z,201.57
2022-11-19T14:38:31.641Z,201.63
2022-11-19T14:41:18.443Z,186.87
2022-11-19T14:44:11.514Z,189.73
2022-11-19T14:46:41.237Z,181.00
2022-11-19T14:49:27.516Z,189.13
2022-11-19T14:51:56.987Z,196.33
2022-11-19T14:54:33.270Z,195.53
2022-11-19T14:57:16.424Z,186.10
2022-11-19T14:59:47.711Z,196.10
2022-11-19T15:02:23.249Z,186.07
2022-11-19T15:04:56.553Z,195.67
2022-11-19T15:07:39.297Z,185.02
2022-11-19T15:10:26.093Z,197.57
2022-11-19T15:13:06.670Z,198.05
2022-11-19T15:15:39.631Z,197.13
2022-11-19T15:18:18.434Z,196.32
2022-11-19T15:21:00.669Z,198.27
2022-11-19T15:23:32.864Z,195.93
2022-11-19T15:26:08.440Z,194.80
2022-11-19T15:28:45.120Z,181.20
2022-11-19T15:31:23.777Z,196.05
2022-11-19T15:34:22.845Z,183.27
2022-11-19T15:36:51.359Z,185.65
2022-11-19T15:39:23.949Z,195.68
2022-11-19T15:42:04.174Z,193.82
2022-11-19T15:44:38.404Z,182.20
2022-11-19T15:47:12.782Z,187.10
2022-11-19T15:49:40.884Z,183.32
2022-11-19T15:52:18.285Z,180.90
2022-11-19T15:54:46.152Z,181.15
2022-11-19T15:57:23.088Z,182.75
2022-11-19T15:59:55.164Z,183.27
2022-11-19T16:02:26.607Z,181.48
2022-11-19T16:04:54.278Z,177.20
2022-11-19T16:07:24.245Z,178.73
2022-11-19T16:09:52.225Z,187.15
2022-11-19T16:12:41.111Z,180.68
2022-11-19T16:15:42.813Z,182.27
2022-11-19T16:18:14.289Z,185.63
2022-11-19T16:20:43.924Z,180.90
2022-11-19T16:23:11.934Z,178.52
2022-11-19T16:25:41.516Z,168.30
2022-11-19T16:28:13.480Z,172.93
2022-11-19T16:30:46.266Z,179.52
2022-11-19T16:33:20.316Z,182.80
2022-11-19T16:35:52.564Z,179.60
2022-11-19T16:38:25.022Z,181.00
2022-11-19T16:41:11.504Z,173.45
2022-11-19T16:43:42.065Z,180.90
2022-11-19T16:46:13.292Z,182.13
2022-11-19T16:48:54.588Z,172.07
2022-11-19T16:51:37.056Z,176.43
2022-11-19T16:54:06.134Z,172.57
2022-11-19T16:56:36.420Z,164.63
2022-11-19T16:59:06.533Z,132.10
2022-11-19T17:01:35.938Z,134.48
2022-11-19T17:04:06.938Z,140.88
2022-11-19T17:06:37.092Z,126.45
2022-11-19T17:09:06.351Z,128.25
2022-11-19T17:11:59.834Z,132.60
2022-11-19T17:14:46.847Z,126.93
2022-11-19T17:17:40.369Z,130.75
2022-11-19T17:20:49.685Z,123.45
2022-11-19T17:23:18.860Z,122.78
2022-11-19T17:25:48.365Z,129.40
2022-11-19T17:28:26.722Z,131.13
2022-11-19T17:30:56.576Z,129.48
2022-11-19T17:33:24.724Z,130.02
2022-11-19T17:35:52.756Z,131.18
2022-11-19T17:38:21.497Z,127.95
2022-11-19T17:40:51.057Z,132.48
2022-11-19T17:43:41.680Z,133.00
2022-11-19T17:46:10.849Z,131.23
2022-11-19T17:48:41.064Z,134.75
2022-11-19T17:51:11.494Z,131.70
2022-11-19T17:53:39.473Z,139.30
2022-11-19T17:56:08.506Z,131.23
2022-11-19T17:58:36.119Z,124.22
2022-11-19T18:01:03.784Z,137.35
2022-11-19T18:03:32.772Z,127.60
2022-11-19T18:06:02.351Z,132.13
2022-11-19T18:08:30.064Z,128.15
2022-11-19T18:10:58.053Z,132.60
2022-11-19T18:13:27.467Z,128.88
2022-11-19T18:15:55.188Z,121.00
2022-11-19T18:18:24.165Z,131.90
2022-11-19T18:20:57.602Z,131.85
2022-11-19T18:23:28.333Z,133.75
2022-11-19T18:25:56.100Z,125.15
2022-11-19T18:28:23.792Z,129.15
2022-11-19T18:30:51.504Z,132.55
2022-11-19T18:33:20.198Z,124.57
2022-11-19T18:35:47.935Z,133.60
2022-11-19T18:38:17.139Z,131.13
2022-11-19T18:40:44.833Z,133.18
2022-11-19T18:43:40.044Z,136.20
2022-11-19T18:46:07.895Z,132.10
2022-11-19T18:48:35.620Z,133.70
2022-11-19T18:51:03.333Z,141.32
2022-11-19T18:53:32.414Z,136.43
2022-11-19T18:56:00.145Z,126.55
2022-11-19T18:58:27.812Z,136.75
2022-11-19T19:00:55.553Z,135.43
2022-11-19T19:03:23.270Z,134.45
2022-11-19T19:05:51.001Z,131.80
2022-11-19T19:08:19.087Z,128.63
2022-11-19T19:10:48.083Z,133.50
2022-11-19T19:13:14.735Z,136.15
2022-11-19T19:15:42.378Z,128.82
2022-11-19T19:18:11.138Z,134.02
2022-11-19T19:20:38.783Z,139.07
2022-11-19T19:23:06.520Z,132.43
2022-11-19T19:25:34.255Z,124.18
2022-11-19T19:28:03.268Z,125.03
2022-11-19T19:30:30.984Z,132.50
2022-11-19T19:32:58.660Z,133.93
2022-11-19T19:35:26.538Z,130.57
2022-11-19T19:37:54.683Z,131.18
2022-11-19T19:40:22.352Z,131.52
2022-11-19T19:42:50.108Z,118.80
2022-11-19T19:45:19.164Z,142.57
2022-11-19T19:47:46.853Z,132.27
2022-11-19T19:50:14.634Z,133.30
2022-11-19T19:52:42.364Z,123.47
2022-11-19T19:55:10.447Z,131.60
2022-11-19T19:57:38.186Z,121.97
2022-11-19T20:00:07.148Z,130.93
2022-11-19T20:02:36.220Z,127.18
2022-11-19T20:05:03.999Z,132.90
2022-11-19T20:07:31.868Z,130.93
2022-11-19T20:09:59.604Z,124.00
2022-11-19T20:12:48.059Z,123.50
2022-11-19T20:15:15.964Z,130.00
2022-11-19T20:17:45.176Z,128.23
2022-11-19T20:20:13.575Z,126.05
2022-11-19T20:22:41.194Z,116.28
2022-11-19T20:25:09.271Z,122.10
2022-11-19T20:27:37.021Z,114.03
2022-11-19T20:30:06.037Z,126.40
2022-11-19T20:32:33.781Z,118.82
2022-11-19T20:35:02.791Z,120.15
2022-11-19T20:37:30.464Z,118.90
2022-11-19T20:39:58.281Z,118.30
2022-11-19T20:42:43.717Z,118.07
2022-11-19T20:45:11.459Z,119.25
2022-11-19T20:47:39.216Z,115.55
2022-11-19T20:50:08.707Z,118.65
2022-11-19T20:52:36.440Z,122.30
2022-11-19T20:55:06.778Z,123.35
2022-11-19T20:57:34.753Z,121.13
2022-11-19T21:00:02.544Z,121.50
2022-11-19T21:02:30.316Z,123.57
2022-11-19T21:04:58.248Z,109.15
2022-11-19T21:07:27.488Z,113.82
2022-11-19T21:09:55.224Z,117.90
2022-11-19T21:12:23.905Z,114.70
2022-11-19T21:14:51.624Z,113.90
2022-11-19T21:17:19.329Z,117.82
2022-11-19T21:19:47.037Z,118.32
2022-11-19T21:22:14.800Z,122.38
2022-11-19T21:24:43.890Z,117.70
2022-11-19T21:27:11.535Z,116.05
2022-11-19T21:29:39.350Z,121.43
2022-11-19T21:32:08.134Z,123.40
2022-11-19T21:34:35.861Z,115.93
2022-11-19T21:37:03.526Z,118.35
2022-11-19T21:39:31.168Z,115.13
2022-11-19T21:42:00.276Z,112.55
2022-11-19T21:44:28.016Z,104.55
2022-11-19T21:46:55.797Z,118.03
2022-11-19T21:49:23.705Z,113.20
2022-11-19T21:51:51.530Z,116.05
2022-11-19T21:54:19.349Z,113.72
2022-11-19T21:56:47.226Z,111.40
2022-11-19T21:59:16.312Z,110.43
2022-11-19T22:01:43.999Z,110.15
2022-11-19T22:04:13.585Z,117.30
2022-11-19T22:06:41.587Z,111.55
2022-11-19T22:09:09.400Z,113.35
2022-11-19T22:11:37.108Z,112.35
2022-11-19T22:14:06.118Z,107.05
2022-11-19T22:16:36.774Z,112.72
2022-11-19T22:19:05.550Z,115.03
2022-11-19T22:21:33.623Z,112.57
2022-11-19T22:24:01.389Z,104.38
2022-11-19T22:26:29.177Z,116.55
2022-11-19T22:28:57.026Z,118.10
2022-11-19T22:31:25.583Z,114.93
2022-11-19T22:33:55.478Z,115.82
2022-11-19T22:36:23.891Z,104.20
2022-11-19T22:38:52.041Z,112.82
2022-11-19T22:41:21.925Z,114.90
2022-11-19T22:43:49.817Z,101.72
2022-11-19T22:46:17.746Z,112.93
2022-11-19T22:48:45.482Z,111.30
2022-11-19T22:51:16.100Z,112.88
2022-11-19T22:53:44.007Z,110.20
2022-11-19T22:56:13.738Z,113.70
2022-11-19T22:58:41.682Z,112.55
2022-11-19T23:01:15.572Z,106.93
2022-11-19T23:03:43.352Z,108.65
2022-11-19T23:06:11.024Z,112.13
2022-11-19T23:08:40.096Z,106.70
2022-11-19T23:11:08.406Z,112.35
2022-11-19T23:13:38.957Z,114.25
2022-11-19T23:16:09.131Z,100.50
2022-11-19T23:18:38.556Z,112.95
2022-11-19T23:21:08.109Z,197.98
2022-11-19T23:23:35.952Z,187.68
2022-11-19T23:26:05.827Z,193.68
2022-11-19T23:28:35.450Z,298.60
2022-11-19T23:31:07.274Z,217.60
2022-11-19T23:33:34.940Z,217.65
2022-11-19T23:36:04.077Z,210.82
2022-11-19T23:38:31.959Z,211.50
2022-11-19T23:41:00.109Z,217.85
2022-11-19T23:43:29.899Z,227.05
2022-11-19T23:46:04.376Z,219.05
2022-11-19T23:48:32.149Z,225.90
2022-11-19T23:51:01.920Z,230.30
2022-11-19T23:53:29.647Z,227.43
2022-11-19T23:55:57.547Z,227.00
2022-11-19T23:58:25.211Z,229.38
